CCDO2: Spavinaw Creek nr Colcord OK

Data processed at Fri Mar 09 2018 23:25


All information presented herein is the property of the government of the United States of America and may be revised or deleted at any time without prior notice.
Dissemination of this information without the expressed written consent of the Public Affairs Office, Tulsa District U.S. Army Corps of Engineers is strictly prohibited.
These data are gathered electronically and, as presented, have not undergone any form of quality control. These data are not guaranteed to be valid or correct.
Go to home page.
Go to station list.

Upstream stations:

Downstream station:
Previous Day
Next Day
Current Day
    
SHEF ID:       CCDO2     Spavinaw Creek near Colcord, OK
STATION TYPE:  

               PRECIP     STAGE  RIV-FLOW  WTR-TEMP   DIS-OXY        PH   CONDUCT TURBIDITY  BAT-LOAD
                   in        ft       cfs         F      mg/l        su   umho/cm       NTU      volt
              Ccp-Rev   Ccp-Rev   Ccp-Rev   Ccp-Rev   Ccp-Rev   Ccp-Rev   Ccp-Rev   Ccp-Rev   Ccp-Rev
(US/Central)
03/07 00:00      0.00      8.52       791     51.26      9.72      7.68       261      ----     12.77
03/07 01:00      0.00      8.52       791     51.08      9.73      7.68       261      ----     12.77
03/07 02:00      0.00      8.52       791     50.94      9.76      7.69       261      ----     12.71
03/07 03:00      0.00      8.51       784     50.83      9.76      7.69       262      ----     12.71
03/07 04:00      0.00      8.51       784     50.79      9.75      7.69       262      ----     12.65
03/07 05:00      0.00      8.51       784     50.77      9.76      7.69       262      ----     12.65
03/07 06:00      0.00      8.51       784     50.74      9.77      7.68       262      ----     12.65
03/07 07:00      0.00      8.50       777     50.70      9.76      7.69       262      ----     12.65
03/07 08:00      0.00      8.50       777     50.76      9.79      7.69       262      ----     12.65
03/07 09:00      0.00      8.50       777     50.81      9.83      7.69       262      ----     12.71
03/07 10:00      0.00      8.50       777     50.99      9.90      7.70       262      ----     12.89
03/07 11:00      0.00      8.49       770     51.46      9.94      7.72       263      ----     13.65
03/07 12:00      0.00      8.49       770     52.21      9.99      7.73       263      ----     13.77
03/07 13:00      0.00      8.49       770     53.02     10.01      7.72       263      ----     13.77
03/07 14:00      0.00      8.49       770     53.85     10.01      7.73       263      ----     13.83
03/07 15:00      0.00      8.48       762     54.37      9.95      7.73       263      ----     13.83
03/07 16:00      0.00      8.48       762     54.66      9.94      7.72       264      ----     13.83
03/07 17:00      0.00      8.48       762     54.57      9.88      7.72       264      ----     13.83
03/07 18:00      0.00      8.48       762     54.28      9.84      7.72       263      ----     13.71
03/07 19:00      0.00      8.48       762     53.82      9.77      7.70       263      ----     13.36
03/07 20:00      0.00      8.48       762     53.35      9.74      7.69       264      ----     13.07
03/07 21:00      0.00      8.48       762     52.86      9.71      7.69       264      ----     12.95
03/07 22:00      0.00      8.48       762     52.39      9.70      7.69       264      ----     12.89
03/07 23:00      0.00      8.47       755     51.98      9.71      7.68       264      ----     12.83